Terminal Aerodrome Forecast
Issued by NWS

Home | Current Version | Previous Version | Text Only | Print | Product List | Glossary On
Versions: 1 2 3 4 5 6 7 8 9 10 11 12 13 14 15 16
000
FTUS42 TJSJ 300548 CCA
TAFJPS
TAF COR
TJPS 300548Z 3006/3106 05005KT P6SM FEW025 BKN090
     FM300800 07006KT P6SM VCSH SCT025 BKN050
     FM301400 13012KT P6SM SCT025 SCT050 SCT120
     FM302330 09007KT P6SM FEW030 SCT060
      AMD NOT SKED 3012/3103=

USA.gov is the U.S. government's official web portal to all federal, state and local government web resources and services.